James T. Quigg — WDA4612 — position and weather

sailwx.info

Track history (hours):
 
Tides and Currents Weather Stations Pressure Air Temp Water Temp Dewpoint Dewpoint Depression Visibility Wind Speed Wind Dir Waves Ship Positions

James T. Quigg

Owner: Harley Marine Services, INC, Seattle, WA. More information available from US FCC via Universal Licensing System and Coast Guard Vessel Documentation Center.

Last reported at 2017-Nov-20 00:30 UTC. Time now 2017-Dec-11 19:20 UTC.
Position N 47°46' W 122°26'.
Warning: this ship's position is 21 days out of date.

Length 30 m; draft 4 m.

Type: Tug. MMSI: 365762734.

Date/timePositionNaut miles runAvg speedWind from/ knotsBaromVisibWave heightAir tempDewpointWater temp
2017-Nov-20 00:30N 47°46' W 122°26'5 9.5
2017-Nov-20 00:00N 47°42' W 122°27'4 8.4
2017-Nov-19 23:30N 47°38' W 122°25'4 7.6
2017-Nov-19 23:00N 47°35' W 122°21'1 1.5
2017-Nov-19 22:30N 47°34' W 122°21'0 0.0
2017-Nov-19 22:00N 47°34' W 122°21'0 0.0
2017-Nov-19 21:30N 47°34' W 122°21'0 0.0
2017-Nov-19 21:00N 47°34' W 122°21'0 0.0
2017-Nov-19 20:29N 47°34' W 122°21'0 0.0
2017-Nov-19 19:59N 47°34' W 122°21'0 0.0
2017-Nov-19 19:29N 47°34' W 122°21'0 0.0
2017-Nov-19 18:59N 47°34' W 122°21'0 0.0
2017-Nov-19 18:29N 47°34' W 122°21'0 0.0
2017-Nov-19 17:59N 47°34' W 122°21'0 0.1
2017-Nov-19 17:30N 47°34' W 122°21'0 0.0
2017-Nov-19 17:00N 47°34' W 122°21'0 0.0
2017-Nov-19 16:29N 47°34' W 122°21'0 0.0
2017-Nov-19 15:59N 47°34' W 122°21'0 0.0
2017-Nov-19 15:29N 47°34' W 122°21'0 0.0
2017-Nov-19 14:59N 47°34' W 122°21'0 0.0
2017-Nov-19 14:29N 47°34' W 122°21'0 0.0
2017-Nov-19 13:59N 47°34' W 122°21'0 0.0
2017-Nov-19 13:29N 47°34' W 122°21'0 0.1
2017-Nov-19 12:59N 47°34' W 122°21'0 0.1
2017-Nov-19 12:30N 47°34' W 122°21'0 0.0
2017-Nov-19 11:59N 47°34' W 122°21'0 0.0
2017-Nov-19 11:29N 47°34' W 122°21'0 0.0
2017-Nov-19 10:59N 47°34' W 122°21'0 0.0
2017-Nov-19 10:29N 47°34' W 122°21'0 0.0
2017-Nov-19 09:59N 47°34' W 122°21'0 0.0
2017-Nov-19 09:29N 47°34' W 122°21'0 0.0
2017-Nov-19 08:59N 47°34' W 122°21'0 0.0
2017-Nov-19 08:29N 47°34' W 122°21'0 0.0
2017-Nov-19 07:59N 47°34' W 122°21'0 0.0
2017-Nov-19 07:29N 47°34' W 122°21'0 0.0
2017-Nov-19 06:59N 47°34' W 122°21'0 0.0
2017-Nov-19 06:29N 47°34' W 122°21'0 0.0
2017-Nov-19 05:59N 47°34' W 122°21'0 0.0
2017-Nov-19 05:30N 47°34' W 122°21'0 0.0
2017-Nov-19 05:00N 47°34' W 122°21'0 0.0
2017-Nov-19 04:30N 47°34' W 122°21'0 0.0
2017-Nov-19 04:00N 47°34' W 122°21'0 0.0
2017-Nov-19 03:29N 47°34' W 122°21'0 0.0
2017-Nov-19 02:59N 47°34' W 122°21'0 0.0
2017-Nov-19 02:29N 47°34' W 122°21'0 0.1
2017-Nov-19 02:00N 47°34' W 122°21'0 0.0
2017-Nov-19 01:30N 47°34' W 122°21'0 0.0
2017-Nov-19 00:59N 47°34' W 122°21'0 0.0
2017-Nov-19 00:29N 47°34' W 122°21'0 0.0
2017-Nov-18 23:59N 47°34' W 122°21'0 0.0
2017-Nov-18 23:29N 47°34' W 122°21'0 0.0
2017-Nov-18 22:59N 47°34' W 122°21'0 0.0
2017-Nov-18 22:29N 47°34' W 122°21'0 0.0
2017-Nov-18 21:59N 47°34' W 122°21'0 0.0
2017-Nov-18 21:30N 47°34' W 122°21'0 0.0
2017-Nov-18 20:59N 47°34' W 122°21'0 0.0
2017-Nov-18 20:30N 47°34' W 122°21'0 0.0
2017-Nov-18 20:00N 47°34' W 122°21'0 0.0
2017-Nov-18 19:30N 47°34' W 122°21'0 0.0
2017-Nov-18 18:59N 47°34' W 122°21'0 0.0
2017-Nov-18 18:30N 47°34' W 122°21'0 0.0
2017-Nov-18 17:59N 47°34' W 122°21'0 0.0
2017-Nov-18 17:30N 47°34' W 122°21'0 0.0
2017-Nov-18 16:56N 47°34' W 122°21'0 0.0
2017-Nov-18 16:29N 47°34' W 122°21'0 0.1
2017-Nov-18 15:57N 47°34' W 122°21'0 0.0
2017-Nov-18 15:30N 47°34' W 122°21'1 2.7
2017-Nov-18 15:00N 47°36' W 122°21'1 2.8
2017-Nov-18 14:30N 47°34' W 122°21'0 0.0
2017-Nov-18 13:59N 47°34' W 122°21'0 0.0
2017-Nov-18 13:29N 47°34' W 122°21'0 0.0
2017-Nov-18 12:59N 47°34' W 122°21'0 0.0
2017-Nov-18 12:29N 47°34' W 122°21'0 0.0
2017-Nov-18 11:59N 47°34' W 122°21'0 0.0
2017-Nov-18 11:29N 47°34' W 122°21'0 0.0
2017-Nov-18 10:59N 47°34' W 122°21'0 0.0
2017-Nov-18 10:29N 47°34' W 122°21'0 0.0
2017-Nov-18 09:59N 47°34' W 122°21'0 0.0
2017-Nov-18 09:29N 47°34' W 122°21'0 0.1
2017-Nov-18 08:59N 47°34' W 122°21'0 0.1
2017-Nov-18 08:29N 47°34' W 122°21'0 0.0
2017-Nov-18 07:59N 47°34' W 122°21'0 0.0
2017-Nov-18 07:30N 47°34' W 122°21'0 0.0
2017-Nov-18 06:59N 47°34' W 122°21'0 0.0
2017-Nov-18 06:29N 47°34' W 122°21'0 0.0
2017-Nov-18 05:59N 47°34' W 122°21'0 0.0
2017-Nov-18 05:29N 47°34' W 122°21'0 0.0
2017-Nov-18 04:59N 47°34' W 122°21'0 0.0
2017-Nov-18 04:30N 47°34' W 122°21'0 0.0
2017-Nov-18 03:59N 47°34' W 122°21'0 0.0
2017-Nov-18 03:29N 47°34' W 122°21'0 0.0
2017-Nov-18 02:59N 47°34' W 122°21'0 0.0
2017-Nov-18 02:29N 47°34' W 122°21'0 0.0
2017-Nov-18 01:59N 47°34' W 122°21'0 0.0
2017-Nov-18 01:26N 47°34' W 122°21'0 0.0
2017-Nov-18 00:59N 47°34' W 122°21'0 0.0
2017-Nov-18 00:29N 47°34' W 122°21'0 0.2
2017-Nov-18 00:00N 47°34' W 122°21'1 1.7
2017-Nov-17 23:29N 47°35' W 122°21'0 0.0
2017-Nov-17 23:00N 47°35' W 122°21'0 0.0
2017-Nov-17 22:29N 47°35' W 122°21'0 0.0
2017-Nov-17 22:00N 47°35' W 122°21'0 0.0
2017-Nov-17 21:29N 47°35' W 122°21'0 0.0
2017-Nov-17 21:00N 47°35' W 122°21'0 0.0
2017-Nov-17 20:30N 47°35' W 122°21'0 0.0
2017-Nov-17 20:00N 47°35' W 122°21'0 0.0
2017-Nov-17 19:30N 47°35' W 122°21'0 0.1
2017-Nov-17 18:57N 47°35' W 122°21'0 0.0
2017-Nov-17 18:30N 47°35' W 122°21'0 0.7
2017-Nov-17 18:01N 47°35' W 122°21'1 2.1
2017-Nov-17 17:30N 47°34' W 122°21'0 0.0
2017-Nov-17 17:00N 47°34' W 122°21'0 0.0
2017-Nov-17 16:30N 47°34' W 122°21'0 0.0
2017-Nov-17 16:00N 47°34' W 122°21'0 0.0
2017-Nov-17 15:30N 47°34' W 122°21'0 0.0
2017-Nov-17 15:00N 47°34' W 122°21'0 0.0
2017-Nov-17 14:30N 47°34' W 122°21'0 0.0
2017-Nov-17 13:57N 47°34' W 122°21'0 0.0
2017-Nov-17 13:27N 47°34' W 122°21'0 0.0
2017-Nov-17 13:00N 47°34' W 122°21'0 0.0
2017-Nov-17 12:28N 47°34' W 122°21'0 0.0
2017-Nov-17 12:00N 47°34' W 122°21'0 0.0
2017-Nov-17 11:30N 47°34' W 122°21'0 0.0
2017-Nov-17 10:57N 47°34' W 122°21'0 0.0
2017-Nov-17 10:30N 47°34' W 122°21'0 0.0
2017-Nov-17 10:00N 47°34' W 122°21'0 0.0
2017-Nov-17 09:30N 47°34' W 122°21'0 0.0
2017-Nov-17 09:00N 47°34' W 122°21'0 0.0
2017-Nov-17 08:30N 47°34' W 122°21'0 0.0
2017-Nov-17 08:00N 47°34' W 122°21'0 0.0
2017-Nov-17 07:24N 47°34' W 122°21'0 0.0
2017-Nov-17 07:00N 47°34' W 122°21'0 0.0
2017-Nov-17 06:30N 47°34' W 122°21'0 0.0
2017-Nov-17 06:00N 47°34' W 122°21'0 0.0
2017-Nov-17 05:30N 47°34' W 122°21'0 0.0
2017-Nov-17 05:00N 47°34' W 122°21'0 0.0
2017-Nov-17 04:30N 47°34' W 122°21'0 0.0
2017-Nov-17 04:00N 47°34' W 122°21'0 0.0
2017-Nov-17 03:30N 47°34' W 122°21'0 0.0
2017-Nov-17 03:00N 47°34' W 122°21'0 0.0
2017-Nov-17 02:30N 47°34' W 122°21'0 0.0
2017-Nov-17 02:00N 47°34' W 122°21'0 0.0
2017-Nov-17 01:30N 47°34' W 122°21'0 0.0
2017-Nov-17 01:00N 47°34' W 122°21'0 0.0
2017-Nov-17 00:30N 47°34' W 122°21'0 0.0
2017-Nov-17 00:00N 47°34' W 122°21'0 0.0
2017-Nov-16 23:30N 47°34' W 122°21'0 0.0
2017-Nov-16 23:00N 47°34' W 122°21'0 0.0
2017-Nov-16 22:30N 47°34' W 122°21'0 0.0
2017-Nov-16 21:59N 47°34' W 122°21'0 0.0
2017-Nov-16 21:29N 47°34' W 122°21'0 0.0
2017-Nov-16 20:59N 47°34' W 122°21'0 0.0
2017-Nov-16 20:29N 47°34' W 122°21'0 0.0
2017-Nov-16 19:59N 47°34' W 122°21'0 0.0
2017-Nov-16 19:29N 47°34' W 122°21'0 0.0
2017-Nov-16 18:59N 47°34' W 122°21'0 0.0
2017-Nov-16 18:29N 47°34' W 122°21'0 0.3
2017-Nov-16 18:00N 47°34' W 122°21'0 0.0
2017-Nov-16 17:29N 47°34' W 122°21'0 0.1
2017-Nov-16 16:59N 47°34' W 122°21'0 0.1
2017-Nov-16 16:29N 47°34' W 122°21'0 0.0
2017-Nov-16 15:59N 47°34' W 122°21'0 0.0
2017-Nov-16 15:29N 47°34' W 122°21'0 0.0
2017-Nov-16 14:59N 47°34' W 122°21'0 0.0
2017-Nov-16 14:29N 47°34' W 122°21'0 0.0
2017-Nov-16 13:59N 47°34' W 122°21'0 0.0
2017-Nov-16 13:29N 47°34' W 122°21'0 0.0
2017-Nov-16 12:59N 47°34' W 122°21'0 0.0
2017-Nov-16 12:29N 47°34' W 122°21'0 0.0
2017-Nov-16 11:59N 47°34' W 122°21'0 0.0
2017-Nov-16 11:29N 47°34' W 122°21'0 0.0
2017-Nov-16 10:59N 47°34' W 122°21'0 0.0
2017-Nov-16 10:26N 47°34' W 122°21'0 0.0
2017-Nov-16 09:59N 47°34' W 122°21'0 0.0
2017-Nov-16 09:29N 47°34' W 122°21'0 0.0
2017-Nov-16 08:59N 47°34' W 122°21'0 0.0
2017-Nov-16 08:29N 47°34' W 122°21'0 0.0
2017-Nov-16 07:59N 47°34' W 122°21'0 0.0
2017-Nov-16 07:29N 47°34' W 122°21'0 0.0
2017-Nov-16 06:56N 47°34' W 122°21'0 0.0
2017-Nov-16 06:29N 47°34' W 122°21'0 0.0
2017-Nov-16 05:59N 47°34' W 122°21'0 0.0
2017-Nov-16 05:29N 47°34' W 122°21'0 0.0
2017-Nov-16 04:59N 47°34' W 122°21'0 0.0
2017-Nov-16 04:29N 47°34' W 122°21'0 0.0
2017-Nov-16 03:56N 47°34' W 122°21'0 0.0
2017-Nov-16 03:29N 47°34' W 122°21'0 0.0
2017-Nov-16 02:59N 47°34' W 122°21'0 0.0
2017-Nov-16 02:29N 47°34' W 122°21'0 0.0
2017-Nov-16 01:56N 47°34' W 122°21'0 0.0
2017-Nov-16 01:29N 47°34' W 122°21'0 0.0
2017-Nov-16 00:59N 47°34' W 122°21'0 0.0
2017-Nov-16 00:29N 47°34' W 122°21'0 0.0
2017-Nov-15 23:59N 47°34' W 122°21'0 0.0
2017-Nov-15 23:29N 47°34' W 122°21'0 0.0
2017-Nov-15 22:59N 47°34' W 122°21'0 0.0
2017-Nov-15 22:29N 47°34' W 122°21'0 0.0
2017-Nov-15 21:59N 47°34' W 122°21'0 0.0
2017-Nov-15 21:29N 47°34' W 122°21'0 0.0
2017-Nov-15 20:59N 47°34' W 122°21'0 0.0
2017-Nov-15 20:29N 47°34' W 122°21'0 0.0
2017-Nov-15 19:59N 47°34' W 122°21'0 0.0
2017-Nov-15 19:29N 47°34' W 122°21'0 0.2
2017-Nov-15 18:59N 47°34' W 122°21'0 0.0
2017-Nov-15 18:29N 47°34' W 122°21'0 0.0
2017-Nov-15 17:59N 47°34' W 122°21'0 0.0
2017-Nov-15 17:29N 47°34' W 122°21'0 0.0
2017-Nov-15 16:59N 47°34' W 122°21'0 0.0
2017-Nov-15 16:29N 47°34' W 122°21'0 0.0
2017-Nov-15 15:59N 47°34' W 122°21'0 0.0
2017-Nov-15 15:29N 47°34' W 122°21'0 0.0
2017-Nov-15 14:59N 47°34' W 122°21'0 0.0
2017-Nov-15 14:29N 47°34' W 122°21'0 0.0
2017-Nov-15 13:59N 47°34' W 122°21'0 0.0
2017-Nov-15 13:29N 47°34' W 122°21'0 0.0
2017-Nov-15 12:59N 47°34' W 122°21'0 0.0
2017-Nov-15 12:29N 47°34' W 122°21'0 0.0
2017-Nov-15 11:59N 47°34' W 122°21'0 0.0
2017-Nov-15 11:29N 47°34' W 122°21'0 0.0
2017-Nov-15 10:59N 47°34' W 122°21'0 0.0
2017-Nov-15 10:29N 47°34' W 122°21'0 0.0
2017-Nov-15 09:59N 47°34' W 122°21'0 0.0
2017-Nov-15 09:29N 47°34' W 122°21'0 0.0
2017-Nov-15 08:59N 47°34' W 122°21'0 0.0
2017-Nov-15 08:29N 47°34' W 122°21'0 0.0
2017-Nov-15 07:59N 47°34' W 122°21'0 0.0
2017-Nov-15 07:29N 47°34' W 122°21'0 0.0
2017-Nov-15 06:59N 47°34' W 122°21'0 0.0
2017-Nov-15 06:29N 47°34' W 122°21'0 0.0
2017-Nov-15 05:59N 47°34' W 122°21'0 0.0
2017-Nov-15 05:29N 47°34' W 122°21'0 0.0
2017-Nov-15 04:59N 47°34' W 122°21'0 0.0
2017-Nov-15 04:29N 47°34' W 122°21'0 0.0
2017-Nov-15 03:59N 47°34' W 122°21'0 0.0
2017-Nov-15 03:29N 47°34' W 122°21'0 0.0
2017-Nov-15 02:59N 47°34' W 122°21'0 0.0
2017-Nov-15 02:29N 47°34' W 122°21'0 0.0
2017-Nov-15 01:59N 47°34' W 122°21'0 0.0
2017-Nov-15 01:29N 47°34' W 122°21'0 0.0
2017-Nov-15 00:59N 47°34' W 122°21'0 0.0
2017-Nov-15 00:29N 47°34' W 122°21'0 0.0
2017-Nov-14 23:59N 47°34' W 122°21'0 0.0
2017-Nov-14 23:29N 47°34' W 122°21'0 0.0
2017-Nov-14 22:59N 47°34' W 122°21'0 0.0
2017-Nov-14 22:29N 47°34' W 122°21'0 0.0
2017-Nov-14 21:59N 47°34' W 122°21'0 0.0
2017-Nov-14 21:29N 47°34' W 122°21'0 0.0
2017-Nov-14 20:59N 47°34' W 122°21'0 0.0
2017-Nov-14 20:29N 47°34' W 122°21'0 0.0
2017-Nov-14 19:59N 47°34' W 122°21'0 0.0
2017-Nov-14 19:29N 47°34' W 122°21'0 0.0
2017-Nov-14 18:59N 47°34' W 122°21'0 0.0
2017-Nov-14 18:29N 47°34' W 122°21'0 0.0
2017-Nov-14 17:59N 47°34' W 122°21'0 0.0
2017-Nov-14 17:29N 47°34' W 122°21'0 0.0
2017-Nov-14 16:59N 47°34' W 122°21'0 0.0
2017-Nov-14 16:29N 47°34' W 122°21'0 0.0
2017-Nov-14 16:00N 47°34' W 122°21'1 1.6
2017-Nov-14 15:26N 47°35' W 122°21'1 1.2
2017-Nov-14 14:58N 47°36' W 122°21'1 2.8
2017-Nov-14 14:28N 47°34' W 122°21'0 0.0
2017-Nov-14 14:00N 47°34' W 122°21'0 0.0
2017-Nov-14 13:30N 47°34' W 122°21'0 0.0
2017-Nov-14 13:00N 47°34' W 122°21'0 0.0
2017-Nov-14 12:30N 47°34' W 122°21'0 0.0
2017-Nov-14 12:00N 47°34' W 122°21'0 0.0
2017-Nov-14 11:30N 47°34' W 122°21'0 0.0
2017-Nov-14 11:00N 47°34' W 122°21'0 0.0
2017-Nov-14 10:30N 47°34' W 122°21'0 0.0
2017-Nov-14 10:00N 47°34' W 122°21'0 0.0
2017-Nov-14 09:30N 47°34' W 122°21'0 0.0
2017-Nov-14 09:00N 47°34' W 122°21'0 0.0
2017-Nov-14 08:30N 47°34' W 122°21'0 0.0
2017-Nov-14 08:00N 47°34' W 122°21'0 0.0
2017-Nov-14 07:30N 47°34' W 122°21'0 0.0
2017-Nov-14 07:00N 47°34' W 122°21'0 0.0
2017-Nov-14 06:30N 47°34' W 122°21'0 0.0
2017-Nov-14 06:00N 47°34' W 122°21'0 0.0
2017-Nov-14 05:30N 47°34' W 122°21'0 0.0
2017-Nov-14 05:00N 47°34' W 122°21'0 0.0
2017-Nov-14 04:30N 47°34' W 122°21'0 0.0
2017-Nov-14 04:01N 47°34' W 122°21'0 0.0
2017-Nov-14 03:30N 47°34' W 122°21'0 0.0
2017-Nov-14 03:00N 47°34' W 122°21'0 0.0
2017-Nov-14 02:30N 47°34' W 122°21'0 0.0
2017-Nov-14 02:00N 47°34' W 122°21'0 0.0
2017-Nov-14 01:30N 47°34' W 122°21'0 0.0
2017-Nov-14 01:00N 47°34' W 122°21'1 2.3
2017-Nov-14 00:31N 47°36' W 122°21'0 0.8
2017-Nov-14 00:00N 47°35' W 122°21'1 1.6
2017-Nov-13 23:30N 47°34' W 122°21'1 2.1
2017-Nov-13 23:00N 47°35' W 122°21'0 0.2
2017-Nov-13 22:30N 47°35' W 122°21'4 7.9
2017-Nov-13 22:00N 47°35' W 122°26'4 0.2
2017-Nov-13 02:00N 47°35' W 122°21'0 0.0
2017-Nov-13 01:30N 47°35' W 122°21'0 0.0
2017-Nov-13 01:00N 47°35' W 122°21'0 0.0
2017-Nov-13 00:30N 47°35' W 122°21'0 0.0
2017-Nov-13 00:00N 47°35' W 122°21'0 0.0
2017-Nov-12 23:30N 47°35' W 122°21'0 0.0
2017-Nov-12 23:00N 47°35' W 122°21'0 0.0
2017-Nov-12 22:30N 47°35' W 122°21'0 0.0
2017-Nov-12 22:00N 47°35' W 122°21'0 0.0
2017-Nov-12 21:30N 47°35' W 122°21'0 0.0
2017-Nov-12 21:00N 47°35' W 122°21'0 0.0
2017-Nov-12 20:30N 47°35' W 122°21'0 0.0
2017-Nov-12 20:00N 47°35' W 122°21'0 0.0
2017-Nov-12 19:30N 47°35' W 122°21'1 1.0
2017-Nov-12 19:00N 47°36' W 122°21'1 1.8
2017-Nov-12 18:30N 47°36' W 122°22'2 3.7
2017-Nov-12 18:00N 47°37' W 122°24'3 6.6
2017-Nov-12 17:30N 47°39' W 122°28'3 6.1
2017-Nov-12 17:00N 47°42' W 122°28'3 6.4
2017-Nov-12 16:30N 47°45' W 122°27'3 6.7
2017-Nov-12 16:00N 47°48' W 122°28'3 6.6
2017-Nov-12 15:30N 47°52' W 122°29'3 6.5
2017-Nov-12 15:00N 47°55' W 122°30'3 6.6
2017-Nov-12 14:29N 47°57' W 122°34'3 5.9
2017-Nov-12 13:59N 47°59' W 122°37'18 4.1
2017-Nov-12 09:37N 48°15' W 122°49'2 6.2
2017-Nov-12 09:17N 48°17' W 122°48'3 6.3
2017-Nov-12 08:52N 48°20' W 122°47'2 6.1
2017-Nov-12 08:30N 48°22' W 122°46'3 6.1
2017-Nov-12 08:00N 48°25' W 122°45'3 6.4
2017-Nov-12 07:30N 48°28' W 122°44'3 5.7
2017-Nov-12 07:00N 48°31' W 122°42'3 5.6
2017-Nov-12 06:30N 48°31' W 122°38'2 3.8
2017-Nov-12 06:00N 48°31' W 122°35'1 1.7
2017-Nov-12 05:30N 48°30' W 122°34'0 0.1
2017-Nov-12 05:00N 48°30' W 122°34'0 0.0
2017-Nov-12 04:30N 48°30' W 122°34'0 0.0
2017-Nov-12 03:54N 48°30' W 122°34'0 0.0
2017-Nov-12 03:31N 48°30' W 122°34'0 0.0
2017-Nov-12 03:01N 48°30' W 122°34'0 0.0
2017-Nov-12 02:31N 48°30' W 122°34'0 0.0
2017-Nov-12 02:01N 48°30' W 122°34'0 0.0
2017-Nov-12 01:31N 48°30' W 122°34'0 0.0
2017-Nov-12 01:00N 48°30' W 122°34'0 0.0
2017-Nov-12 00:30N 48°30' W 122°34'0 0.0
2017-Nov-12 00:01N 48°30' W 122°34'0 0.0
2017-Nov-11 23:31N 48°30' W 122°34'0 0.0
2017-Nov-11 23:00N 48°30' W 122°34'0 0.0
2017-Nov-11 22:31N 48°30' W 122°34'0 0.0
2017-Nov-11 22:01N 48°30' W 122°34'0 0.0
2017-Nov-11 21:31N 48°30' W 122°34'0 0.0
2017-Nov-11 21:00N 48°30' W 122°34'0 0.0
2017-Nov-11 20:30N 48°30' W 122°34'0 0.0
2017-Nov-11 20:00N 48°30' W 122°34'0 0.0
2017-Nov-11 19:31N 48°30' W 122°34'0 0.0
2017-Nov-11 19:00N 48°30' W 122°34'0 0.0
2017-Nov-11 18:31N 48°30' W 122°34'0 0.0
2017-Nov-11 18:01N 48°30' W 122°34'0 0.0
2017-Nov-11 17:31N 48°30' W 122°34'0 0.0
2017-Nov-11 17:01N 48°30' W 122°34'0 0.0
2017-Nov-11 16:31N 48°30' W 122°34'0 0.0
2017-Nov-11 16:00N 48°30' W 122°34'0 0.0
2017-Nov-11 15:31N 48°30' W 122°34'0 0.0
2017-Nov-11 15:01N 48°30' W 122°34'0 0.0
2017-Nov-11 14:31N 48°30' W 122°34'1 1.3
2017-Nov-11 14:01N 48°31' W 122°35'1 2.4
2017-Nov-11 13:31N 48°32' W 122°36'3 5.5
2017-Nov-11 13:01N 48°31' W 122°41'3 5.3
2017-Nov-11 12:31N 48°29' W 122°43'2 4.3
2017-Nov-11 12:00N 48°27' W 122°44'3 6.5
2017-Nov-11 11:30N 48°24' W 122°44'3 6.3
2017-Nov-11 11:00N 48°21' W 122°45'8 6.9
2017-Nov-11 09:49N 48°13' W 122°48'10 8.9
2017-Nov-11 08:44N 48°06' W 122°39'2 9.9
2017-Nov-11 08:29N 48°03' W 122°38'510.1
2017-Nov-11 07:59N 47°59' W 122°35'4 9.4
2017-Nov-11 07:31N 47°56' W 122°29'5 9.2
2017-Nov-11 07:01N 47°51' W 122°27'4 8.8
2017-Nov-11 06:31N 47°47' W 122°26'4 8.4
2017-Nov-11 06:01N 47°43' W 122°26'4 7.9
2017-Nov-11 05:31N 47°39' W 122°27'4 7.0
2017-Nov-11 05:00N 47°36' W 122°23'1 1.9
2017-Nov-11 04:29N 47°35' W 122°23'0 0.1
2017-Nov-11 03:58N 47°35' W 122°22'0 0.0
2017-Nov-11 03:29N 47°35' W 122°22'0 0.0
2017-Nov-11 02:59N 47°35' W 122°22'0 0.0
2017-Nov-11 02:29N 47°35' W 122°22'0 0.0
2017-Nov-11 01:59N 47°35' W 122°22'0 0.0
2017-Nov-11 01:28N 47°35' W 122°22'0 0.1
2017-Nov-11 00:59N 47°35' W 122°23'0 0.1
2017-Nov-11 00:29N 47°35' W 122°23'0 0.1
2017-Nov-10 23:59N 47°35' W 122°23'0 0.1
2017-Nov-10 23:28N 47°35' W 122°23'0 0.0
2017-Nov-10 22:59N 47°35' W 122°23'0 0.0
2017-Nov-10 22:29N 47°35' W 122°23'0 0.0
2017-Nov-10 21:59N 47°35' W 122°23'0 0.0
2017-Nov-10 21:28N 47°35' W 122°23'1 2.3
2017-Nov-10 21:00N 47°36' W 122°21'1 2.0
2017-Nov-10 20:26N 47°34' W 122°21'1 1.9
2017-Nov-10 20:00N 47°35' W 122°21'1 2.3
2017-Nov-10 19:29N 47°35' W 122°23'0 0.1
2017-Nov-10 18:58N 47°35' W 122°23'0 0.1
2017-Nov-10 18:29N 47°35' W 122°23'0 0.1
2017-Nov-10 17:56N 47°35' W 122°23'0 0.1
2017-Nov-10 17:28N 47°35' W 122°23'0 0.1
2017-Nov-10 16:59N 47°35' W 122°23'0 0.0
2017-Nov-10 16:29N 47°35' W 122°23'0 0.0
2017-Nov-10 15:59N 47°35' W 122°23'0 0.0
2017-Nov-10 15:29N 47°35' W 122°23'0 0.1
2017-Nov-10 14:58N 47°35' W 122°22'0 0.0
2017-Nov-10 14:29N 47°35' W 122°22'0 0.0
2017-Nov-10 13:59N 47°35' W 122°22'0 0.0
2017-Nov-10 13:29N 47°35' W 122°22'0 0.0
2017-Nov-10 12:59N 47°35' W 122°22'0 0.0
2017-Nov-10 12:25N 47°35' W 122°22'0 0.1
2017-Nov-10 11:59N 47°35' W 122°23'0 0.0
2017-Nov-10 11:29N 47°35' W 122°23'0 0.1
2017-Nov-10 10:58N 47°35' W 122°22'0 0.1
2017-Nov-10 10:29N 47°35' W 122°23'0 0.1
2017-Nov-10 09:58N 47°35' W 122°23'0 0.0
2017-Nov-10 09:29N 47°35' W 122°23'0 0.0
2017-Nov-10 08:59N 47°35' W 122°23'0 0.0
2017-Nov-10 08:29N 47°35' W 122°23'0 0.0
2017-Nov-10 07:59N 47°35' W 122°23'0 0.0
2017-Nov-10 07:29N 47°35' W 122°23'0 0.0
2017-Nov-10 06:59N 47°35' W 122°23'0 0.0
2017-Nov-10 06:29N 47°35' W 122°23'0 0.0
2017-Nov-10 05:59N 47°35' W 122°23'0 0.0
2017-Nov-10 05:29N 47°35' W 122°23'0 0.0
2017-Nov-10 04:58N 47°35' W 122°23'0 0.0
2017-Nov-10 04:28N 47°35' W 122°23'0 0.0
2017-Nov-10 03:58N 47°35' W 122°23'0 0.0
2017-Nov-10 03:28N 47°35' W 122°23'0 0.0
2017-Nov-10 02:52N 47°35' W 122°23'0 0.1
2017-Nov-10 02:28N 47°35' W 122°23'0 0.1
2017-Nov-10 01:58N 47°35' W 122°22'0 0.1
2017-Nov-10 01:28N 47°35' W 122°23'0 0.1
2017-Nov-10 00:58N 47°35' W 122°23'  
Track history (hours):
 
Tides and Currents Weather Stations Pressure Air Temp Water Temp Dewpoint Dewpoint Depression Visibility Wind Speed Wind Dir Waves Ship Positions

James T. Quigg

Owner: Harley Marine Services, INC, Seattle, WA. More information available from US FCC via Universal Licensing System and Coast Guard Vessel Documentation Center.

Last reported at 2017-Nov-20 00:30 UTC. Time now 2017-Dec-11 19:20 UTC.
Position N 47°46' W 122°26'.
Warning: this ship's position is 21 days out of date.

Length 30 m; draft 4 m.

Type: Tug. MMSI: 365762734.

Date/timePositionNaut miles runAvg speedWind from/ knotsBaromVisibWave heightAir tempDewpointWater temp
2017-Nov-20 00:30N 47°46' W 122°26'5 9.5
2017-Nov-20 00:00N 47°42' W 122°27'4 8.4
2017-Nov-19 23:30N 47°38' W 122°25'4 7.6
2017-Nov-19 23:00N 47°35' W 122°21'1 1.5
2017-Nov-19 22:30N 47°34' W 122°21'0 0.0
2017-Nov-19 22:00N 47°34' W 122°21'0 0.0
2017-Nov-19 21:30N 47°34' W 122°21'0 0.0
2017-Nov-19 21:00N 47°34' W 122°21'0 0.0
2017-Nov-19 20:29N 47°34' W 122°21'0 0.0
2017-Nov-19 19:59N 47°34' W 122°21'0 0.0
2017-Nov-19 19:29N 47°34' W 122°21'0 0.0
2017-Nov-19 18:59N 47°34' W 122°21'0 0.0
2017-Nov-19 18:29N 47°34' W 122°21'0 0.0
2017-Nov-19 17:59N 47°34' W 122°21'0 0.1
2017-Nov-19 17:30N 47°34' W 122°21'0 0.0
2017-Nov-19 17:00N 47°34' W 122°21'0 0.0
2017-Nov-19 16:29N 47°34' W 122°21'0 0.0
2017-Nov-19 15:59N 47°34' W 122°21'0 0.0
2017-Nov-19 15:29N 47°34' W 122°21'0 0.0
2017-Nov-19 14:59N 47°34' W 122°21'0 0.0
2017-Nov-19 14:29N 47°34' W 122°21'0 0.0
2017-Nov-19 13:59N 47°34' W 122°21'0 0.0
2017-Nov-19 13:29N 47°34' W 122°21'0 0.1
2017-Nov-19 12:59N 47°34' W 122°21'0 0.1
2017-Nov-19 12:30N 47°34' W 122°21'0 0.0
2017-Nov-19 11:59N 47°34' W 122°21'0 0.0
2017-Nov-19 11:29N 47°34' W 122°21'0 0.0
2017-Nov-19 10:59N 47°34' W 122°21'0 0.0
2017-Nov-19 10:29N 47°34' W 122°21'0 0.0
2017-Nov-19 09:59N 47°34' W 122°21'0 0.0
2017-Nov-19 09:29N 47°34' W 122°21'0 0.0
2017-Nov-19 08:59N 47°34' W 122°21'0 0.0
2017-Nov-19 08:29N 47°34' W 122°21'0 0.0
2017-Nov-19 07:59N 47°34' W 122°21'0 0.0
2017-Nov-19 07:29N 47°34' W 122°21'0 0.0
2017-Nov-19 06:59N 47°34' W 122°21'0 0.0
2017-Nov-19 06:29N 47°34' W 122°21'0 0.0
2017-Nov-19 05:59N 47°34' W 122°21'0 0.0
2017-Nov-19 05:30N 47°34' W 122°21'0 0.0
2017-Nov-19 05:00N 47°34' W 122°21'0 0.0
2017-Nov-19 04:30N 47°34' W 122°21'0 0.0
2017-Nov-19 04:00N 47°34' W 122°21'0 0.0
2017-Nov-19 03:29N 47°34' W 122°21'0 0.0
2017-Nov-19 02:59N 47°34' W 122°21'0 0.0
2017-Nov-19 02:29N 47°34' W 122°21'0 0.1
2017-Nov-19 02:00N 47°34' W 122°21'0 0.0
2017-Nov-19 01:30N 47°34' W 122°21'0 0.0
2017-Nov-19 00:59N 47°34' W 122°21'0 0.0
2017-Nov-19 00:29N 47°34' W 122°21'0 0.0
2017-Nov-18 23:59N 47°34' W 122°21'0 0.0
2017-Nov-18 23:29N 47°34' W 122°21'0 0.0
2017-Nov-18 22:59N 47°34' W 122°21'0 0.0
2017-Nov-18 22:29N 47°34' W 122°21'0 0.0
2017-Nov-18 21:59N 47°34' W 122°21'0 0.0
2017-Nov-18 21:30N 47°34' W 122°21'0 0.0
2017-Nov-18 20:59N 47°34' W 122°21'0 0.0
2017-Nov-18 20:30N 47°34' W 122°21'0 0.0
2017-Nov-18 20:00N 47°34' W 122°21'0 0.0
2017-Nov-18 19:30N 47°34' W 122°21'0 0.0
2017-Nov-18 18:59N 47°34' W 122°21'0 0.0
2017-Nov-18 18:30N 47°34' W 122°21'0 0.0
2017-Nov-18 17:59N 47°34' W 122°21'0 0.0
2017-Nov-18 17:30N 47°34' W 122°21'0 0.0
2017-Nov-18 16:56N 47°34' W 122°21'0 0.0
2017-Nov-18 16:29N 47°34' W 122°21'0 0.1
2017-Nov-18 15:57N 47°34' W 122°21'0 0.0
2017-Nov-18 15:30N 47°34' W 122°21'1 2.7
2017-Nov-18 15:00N 47°36' W 122°21'1 2.8
2017-Nov-18 14:30N 47°34' W 122°21'0 0.0
2017-Nov-18 13:59N 47°34' W 122°21'0 0.0
2017-Nov-18 13:29N 47°34' W 122°21'0 0.0
2017-Nov-18 12:59N 47°34' W 122°21'0 0.0
2017-Nov-18 12:29N 47°34' W 122°21'0 0.0
2017-Nov-18 11:59N 47°34' W 122°21'0 0.0
2017-Nov-18 11:29N 47°34' W 122°21'0 0.0
2017-Nov-18 10:59N 47°34' W 122°21'0 0.0
2017-Nov-18 10:29N 47°34' W 122°21'0 0.0
2017-Nov-18 09:59N 47°34' W 122°21'0 0.0
2017-Nov-18 09:29N 47°34' W 122°21'0 0.1
2017-Nov-18 08:59N 47°34' W 122°21'0 0.1
2017-Nov-18 08:29N 47°34' W 122°21'0 0.0
2017-Nov-18 07:59N 47°34' W 122°21'0 0.0
2017-Nov-18 07:30N 47°34' W 122°21'0 0.0
2017-Nov-18 06:59N 47°34' W 122°21'0 0.0
2017-Nov-18 06:29N 47°34' W 122°21'0 0.0
2017-Nov-18 05:59N 47°34' W 122°21'0 0.0
2017-Nov-18 05:29N 47°34' W 122°21'0 0.0
2017-Nov-18 04:59N 47°34' W 122°21'0 0.0
2017-Nov-18 04:30N 47°34' W 122°21'0 0.0
2017-Nov-18 03:59N 47°34' W 122°21'0 0.0
2017-Nov-18 03:29N 47°34' W 122°21'0 0.0
2017-Nov-18 02:59N 47°34' W 122°21'0 0.0
2017-Nov-18 02:29N 47°34' W 122°21'0 0.0
2017-Nov-18 01:59N 47°34' W 122°21'0 0.0
2017-Nov-18 01:26N 47°34' W 122°21'0 0.0
2017-Nov-18 00:59N 47°34' W 122°21'0 0.0
2017-Nov-18 00:29N 47°34' W 122°21'0 0.2
2017-Nov-18 00:00N 47°34' W 122°21'1 1.7
2017-Nov-17 23:29N 47°35' W 122°21'0 0.0
2017-Nov-17 23:00N 47°35' W 122°21'0 0.0
2017-Nov-17 22:29N 47°35' W 122°21'0 0.0
2017-Nov-17 22:00N 47°35' W 122°21'0 0.0
2017-Nov-17 21:29N 47°35' W 122°21'0 0.0
2017-Nov-17 21:00N 47°35' W 122°21'0 0.0
2017-Nov-17 20:30N 47°35' W 122°21'0 0.0
2017-Nov-17 20:00N 47°35' W 122°21'0 0.0
2017-Nov-17 19:30N 47°35' W 122°21'0 0.1
2017-Nov-17 18:57N 47°35' W 122°21'0 0.0
2017-Nov-17 18:30N 47°35' W 122°21'0 0.7
2017-Nov-17 18:01N 47°35' W 122°21'1 2.1
2017-Nov-17 17:30N 47°34' W 122°21'0 0.0
2017-Nov-17 17:00N 47°34' W 122°21'0 0.0
2017-Nov-17 16:30N 47°34' W 122°21'0 0.0
2017-Nov-17 16:00N 47°34' W 122°21'0 0.0
2017-Nov-17 15:30N 47°34' W 122°21'0 0.0
2017-Nov-17 15:00N 47°34' W 122°21'0 0.0
2017-Nov-17 14:30N 47°34' W 122°21'0 0.0
2017-Nov-17 13:57N 47°34' W 122°21'0 0.0
2017-Nov-17 13:27N 47°34' W 122°21'0 0.0
2017-Nov-17 13:00N 47°34' W 122°21'0 0.0
2017-Nov-17 12:28N 47°34' W 122°21'0 0.0
2017-Nov-17 12:00N 47°34' W 122°21'0 0.0
2017-Nov-17 11:30N 47°34' W 122°21'0 0.0
2017-Nov-17 10:57N 47°34' W 122°21'0 0.0
2017-Nov-17 10:30N 47°34' W 122°21'0 0.0
2017-Nov-17 10:00N 47°34' W 122°21'0 0.0
2017-Nov-17 09:30N 47°34' W 122°21'0 0.0
2017-Nov-17 09:00N 47°34' W 122°21'0 0.0
2017-Nov-17 08:30N 47°34' W 122°21'0 0.0
2017-Nov-17 08:00N 47°34' W 122°21'0 0.0
2017-Nov-17 07:24N 47°34' W 122°21'0 0.0
2017-Nov-17 07:00N 47°34' W 122°21'0 0.0
2017-Nov-17 06:30N 47°34' W 122°21'0 0.0
2017-Nov-17 06:00N 47°34' W 122°21'0 0.0
2017-Nov-17 05:30N 47°34' W 122°21'0 0.0
2017-Nov-17 05:00N 47°34' W 122°21'0 0.0
2017-Nov-17 04:30N 47°34' W 122°21'0 0.0
2017-Nov-17 04:00N 47°34' W 122°21'0 0.0
2017-Nov-17 03:30N 47°34' W 122°21'0 0.0
2017-Nov-17 03:00N 47°34' W 122°21'0 0.0
2017-Nov-17 02:30N 47°34' W 122°21'0 0.0
2017-Nov-17 02:00N 47°34' W 122°21'0 0.0
2017-Nov-17 01:30N 47°34' W 122°21'0 0.0
2017-Nov-17 01:00N 47°34' W 122°21'0 0.0
2017-Nov-17 00:30N 47°34' W 122°21'0 0.0
2017-Nov-17 00:00N 47°34' W 122°21'0 0.0
2017-Nov-16 23:30N 47°34' W 122°21'0 0.0
2017-Nov-16 23:00N 47°34' W 122°21'0 0.0
2017-Nov-16 22:30N 47°34' W 122°21'0 0.0
2017-Nov-16 21:59N 47°34' W 122°21'0 0.0
2017-Nov-16 21:29N 47°34' W 122°21'0 0.0
2017-Nov-16 20:59N 47°34' W 122°21'0 0.0
2017-Nov-16 20:29N 47°34' W 122°21'0 0.0
2017-Nov-16 19:59N 47°34' W 122°21'0 0.0
2017-Nov-16 19:29N 47°34' W 122°21'0 0.0
2017-Nov-16 18:59N 47°34' W 122°21'0 0.0
2017-Nov-16 18:29N 47°34' W 122°21'0 0.3
2017-Nov-16 18:00N 47°34' W 122°21'0 0.0
2017-Nov-16 17:29N 47°34' W 122°21'0 0.1
2017-Nov-16 16:59N 47°34' W 122°21'0 0.1
2017-Nov-16 16:29N 47°34' W 122°21'0 0.0
2017-Nov-16 15:59N 47°34' W 122°21'0 0.0
2017-Nov-16 15:29N 47°34' W 122°21'0 0.0
2017-Nov-16 14:59N 47°34' W 122°21'0 0.0
2017-Nov-16 14:29N 47°34' W 122°21'0 0.0
2017-Nov-16 13:59N 47°34' W 122°21'0 0.0
2017-Nov-16 13:29N 47°34' W 122°21'0 0.0
2017-Nov-16 12:59N 47°34' W 122°21'0 0.0
2017-Nov-16 12:29N 47°34' W 122°21'0 0.0
2017-Nov-16 11:59N 47°34' W 122°21'0 0.0
2017-Nov-16 11:29N 47°34' W 122°21'0 0.0
2017-Nov-16 10:59N 47°34' W 122°21'0 0.0
2017-Nov-16 10:26N 47°34' W 122°21'0 0.0
2017-Nov-16 09:59N 47°34' W 122°21'0 0.0
2017-Nov-16 09:29N 47°34' W 122°21'0 0.0
2017-Nov-16 08:59N 47°34' W 122°21'0 0.0
2017-Nov-16 08:29N 47°34' W 122°21'0 0.0
2017-Nov-16 07:59N 47°34' W 122°21'0 0.0
2017-Nov-16 07:29N 47°34' W 122°21'0 0.0
2017-Nov-16 06:56N 47°34' W 122°21'0 0.0
2017-Nov-16 06:29N 47°34' W 122°21'0 0.0
2017-Nov-16 05:59N 47°34' W 122°21'0 0.0
2017-Nov-16 05:29N 47°34' W 122°21'0 0.0
2017-Nov-16 04:59N 47°34' W 122°21'0 0.0
2017-Nov-16 04:29N 47°34' W 122°21'0 0.0
2017-Nov-16 03:56N 47°34' W 122°21'0 0.0
2017-Nov-16 03:29N 47°34' W 122°21'0 0.0
2017-Nov-16 02:59N 47°34' W 122°21'0 0.0
2017-Nov-16 02:29N 47°34' W 122°21'0 0.0
2017-Nov-16 01:56N 47°34' W 122°21'0 0.0
2017-Nov-16 01:29N 47°34' W 122°21'0 0.0
2017-Nov-16 00:59N 47°34' W 122°21'0 0.0
2017-Nov-16 00:29N 47°34' W 122°21'0 0.0
2017-Nov-15 23:59N 47°34' W 122°21'0 0.0
2017-Nov-15 23:29N 47°34' W 122°21'0 0.0
2017-Nov-15 22:59N 47°34' W 122°21'0 0.0
2017-Nov-15 22:29N 47°34' W 122°21'0 0.0
2017-Nov-15 21:59N 47°34' W 122°21'0 0.0
2017-Nov-15 21:29N 47°34' W 122°21'0 0.0
2017-Nov-15 20:59N 47°34' W 122°21'0 0.0
2017-Nov-15 20:29N 47°34' W 122°21'0 0.0
2017-Nov-15 19:59N 47°34' W 122°21'0 0.0
2017-Nov-15 19:29N 47°34' W 122°21'0 0.2
2017-Nov-15 18:59N 47°34' W 122°21'0 0.0
2017-Nov-15 18:29N 47°34' W 122°21'0 0.0
2017-Nov-15 17:59N 47°34' W 122°21'0 0.0
2017-Nov-15 17:29N 47°34' W 122°21'0 0.0
2017-Nov-15 16:59N 47°34' W 122°21'0 0.0
2017-Nov-15 16:29N 47°34' W 122°21'0 0.0
2017-Nov-15 15:59N 47°34' W 122°21'0 0.0
2017-Nov-15 15:29N 47°34' W 122°21'0 0.0
2017-Nov-15 14:59N 47°34' W 122°21'0 0.0
2017-Nov-15 14:29N 47°34' W 122°21'0 0.0
2017-Nov-15 13:59N 47°34' W 122°21'0 0.0
2017-Nov-15 13:29N 47°34' W 122°21'0 0.0
2017-Nov-15 12:59N 47°34' W 122°21'0 0.0
2017-Nov-15 12:29N 47°34' W 122°21'0 0.0
2017-Nov-15 11:59N 47°34' W 122°21'0 0.0
2017-Nov-15 11:29N 47°34' W 122°21'0 0.0
2017-Nov-15 10:59N 47°34' W 122°21'0 0.0
2017-Nov-15 10:29N 47°34' W 122°21'0 0.0
2017-Nov-15 09:59N 47°34' W 122°21'0 0.0
2017-Nov-15 09:29N 47°34' W 122°21'0 0.0
2017-Nov-15 08:59N 47°34' W 122°21'0 0.0
2017-Nov-15 08:29N 47°34' W 122°21'0 0.0
2017-Nov-15 07:59N 47°34' W 122°21'0 0.0
2017-Nov-15 07:29N 47°34' W 122°21'0 0.0
2017-Nov-15 06:59N 47°34' W 122°21'0 0.0
2017-Nov-15 06:29N 47°34' W 122°21'0 0.0
2017-Nov-15 05:59N 47°34' W 122°21'0 0.0
2017-Nov-15 05:29N 47°34' W 122°21'0 0.0
2017-Nov-15 04:59N 47°34' W 122°21'0 0.0
2017-Nov-15 04:29N 47°34' W 122°21'0 0.0
2017-Nov-15 03:59N 47°34' W 122°21'0 0.0
2017-Nov-15 03:29N 47°34' W 122°21'0 0.0
2017-Nov-15 02:59N 47°34' W 122°21'0 0.0
2017-Nov-15 02:29N 47°34' W 122°21'0 0.0
2017-Nov-15 01:59N 47°34' W 122°21'0 0.0
2017-Nov-15 01:29N 47°34' W 122°21'0 0.0
2017-Nov-15 00:59N 47°34' W 122°21'0 0.0
2017-Nov-15 00:29N 47°34' W 122°21'0 0.0
2017-Nov-14 23:59N 47°34' W 122°21'0 0.0
2017-Nov-14 23:29N 47°34' W 122°21'0 0.0
2017-Nov-14 22:59N 47°34' W 122°21'0 0.0
2017-Nov-14 22:29N 47°34' W 122°21'0 0.0
2017-Nov-14 21:59N 47°34' W 122°21'0 0.0
2017-Nov-14 21:29N 47°34' W 122°21'0 0.0
2017-Nov-14 20:59N 47°34' W 122°21'0 0.0
2017-Nov-14 20:29N 47°34' W 122°21'0 0.0
2017-Nov-14 19:59N 47°34' W 122°21'0 0.0
2017-Nov-14 19:29N 47°34' W 122°21'0 0.0
2017-Nov-14 18:59N 47°34' W 122°21'0 0.0
2017-Nov-14 18:29N 47°34' W 122°21'0 0.0
2017-Nov-14 17:59N 47°34' W 122°21'0 0.0
2017-Nov-14 17:29N 47°34' W 122°21'0 0.0
2017-Nov-14 16:59N 47°34' W 122°21'0 0.0
2017-Nov-14 16:29N 47°34' W 122°21'0 0.0
2017-Nov-14 16:00N 47°34' W 122°21'1 1.6
2017-Nov-14 15:26N 47°35' W 122°21'1 1.2
2017-Nov-14 14:58N 47°36' W 122°21'1 2.8
2017-Nov-14 14:28N 47°34' W 122°21'0 0.0
2017-Nov-14 14:00N 47°34' W 122°21'0 0.0
2017-Nov-14 13:30N 47°34' W 122°21'0 0.0
2017-Nov-14 13:00N 47°34' W 122°21'0 0.0
2017-Nov-14 12:30N 47°34' W 122°21'0 0.0
2017-Nov-14 12:00N 47°34' W 122°21'0 0.0
2017-Nov-14 11:30N 47°34' W 122°21'0 0.0
2017-Nov-14 11:00N 47°34' W 122°21'0 0.0
2017-Nov-14 10:30N 47°34' W 122°21'0 0.0
2017-Nov-14 10:00N 47°34' W 122°21'0 0.0
2017-Nov-14 09:30N 47°34' W 122°21'0 0.0
2017-Nov-14 09:00N 47°34' W 122°21'0 0.0
2017-Nov-14 08:30N 47°34' W 122°21'0 0.0
2017-Nov-14 08:00N 47°34' W 122°21'0 0.0
2017-Nov-14 07:30N 47°34' W 122°21'0 0.0
2017-Nov-14 07:00N 47°34' W 122°21'0 0.0
2017-Nov-14 06:30N 47°34' W 122°21'0 0.0
2017-Nov-14 06:00N 47°34' W 122°21'0 0.0
2017-Nov-14 05:30N 47°34' W 122°21'0 0.0
2017-Nov-14 05:00N 47°34' W 122°21'0 0.0
2017-Nov-14 04:30N 47°34' W 122°21'0 0.0
2017-Nov-14 04:01N 47°34' W 122°21'0 0.0
2017-Nov-14 03:30N 47°34' W 122°21'0 0.0
2017-Nov-14 03:00N 47°34' W 122°21'0 0.0
2017-Nov-14 02:30N 47°34' W 122°21'0 0.0
2017-Nov-14 02:00N 47°34' W 122°21'0 0.0
2017-Nov-14 01:30N 47°34' W 122°21'0 0.0
2017-Nov-14 01:00N 47°34' W 122°21'1 2.3
2017-Nov-14 00:31N 47°36' W 122°21'0 0.8
2017-Nov-14 00:00N 47°35' W 122°21'1 1.6
2017-Nov-13 23:30N 47°34' W 122°21'1 2.1
2017-Nov-13 23:00N 47°35' W 122°21'0 0.2
2017-Nov-13 22:30N 47°35' W 122°21'4 7.9
2017-Nov-13 22:00N 47°35' W 122°26'4 0.2
2017-Nov-13 02:00N 47°35' W 122°21'0 0.0
2017-Nov-13 01:30N 47°35' W 122°21'0 0.0
2017-Nov-13 01:00N 47°35' W 122°21'0 0.0
2017-Nov-13 00:30N 47°35' W 122°21'0 0.0
2017-Nov-13 00:00N 47°35' W 122°21'0 0.0
2017-Nov-12 23:30N 47°35' W 122°21'0 0.0
2017-Nov-12 23:00N 47°35' W 122°21'0 0.0
2017-Nov-12 22:30N 47°35' W 122°21'0 0.0
2017-Nov-12 22:00N 47°35' W 122°21'0 0.0
2017-Nov-12 21:30N 47°35' W 122°21'0 0.0
2017-Nov-12 21:00N 47°35' W 122°21'0 0.0
2017-Nov-12 20:30N 47°35' W 122°21'0 0.0
2017-Nov-12 20:00N 47°35' W 122°21'0 0.0
2017-Nov-12 19:30N 47°35' W 122°21'1 1.0
2017-Nov-12 19:00N 47°36' W 122°21'1 1.8
2017-Nov-12 18:30N 47°36' W 122°22'2 3.7
2017-Nov-12 18:00N 47°37' W 122°24'3 6.6
2017-Nov-12 17:30N 47°39' W 122°28'3 6.1
2017-Nov-12 17:00N 47°42' W 122°28'3 6.4
2017-Nov-12 16:30N 47°45' W 122°27'3 6.7
2017-Nov-12 16:00N 47°48' W 122°28'3 6.6
2017-Nov-12 15:30N 47°52' W 122°29'3 6.5
2017-Nov-12 15:00N 47°55' W 122°30'3 6.6
2017-Nov-12 14:29N 47°57' W 122°34'3 5.9
2017-Nov-12 13:59N 47°59' W 122°37'18 4.1
2017-Nov-12 09:37N 48°15' W 122°49'2 6.2
2017-Nov-12 09:17N 48°17' W 122°48'3 6.3
2017-Nov-12 08:52N 48°20' W 122°47'2 6.1
2017-Nov-12 08:30N 48°22' W 122°46'3 6.1
2017-Nov-12 08:00N 48°25' W 122°45'3 6.4
2017-Nov-12 07:30N 48°28' W 122°44'3 5.7
2017-Nov-12 07:00N 48°31' W 122°42'3 5.6
2017-Nov-12 06:30N 48°31' W 122°38'2 3.8
2017-Nov-12 06:00N 48°31' W 122°35'1 1.7
2017-Nov-12 05:30N 48°30' W 122°34'0 0.1
2017-Nov-12 05:00N 48°30' W 122°34'0 0.0
2017-Nov-12 04:30N 48°30' W 122°34'0 0.0
2017-Nov-12 03:54N 48°30' W 122°34'0 0.0
2017-Nov-12 03:31N 48°30' W 122°34'0 0.0
2017-Nov-12 03:01N 48°30' W 122°34'0 0.0
2017-Nov-12 02:31N 48°30' W 122°34'0 0.0
2017-Nov-12 02:01N 48°30' W 122°34'0 0.0
2017-Nov-12 01:31N 48°30' W 122°34'0 0.0
2017-Nov-12 01:00N 48°30' W 122°34'0 0.0
2017-Nov-12 00:30N 48°30' W 122°34'0 0.0
2017-Nov-12 00:01N 48°30' W 122°34'0 0.0
2017-Nov-11 23:31N 48°30' W 122°34'0 0.0
2017-Nov-11 23:00N 48°30' W 122°34'0 0.0
2017-Nov-11 22:31N 48°30' W 122°34'0 0.0
2017-Nov-11 22:01N 48°30' W 122°34'0 0.0
2017-Nov-11 21:31N 48°30' W 122°34'0 0.0
2017-Nov-11 21:00N 48°30' W 122°34'0 0.0
2017-Nov-11 20:30N 48°30' W 122°34'0 0.0
2017-Nov-11 20:00N 48°30' W 122°34'0 0.0
2017-Nov-11 19:31N 48°30' W 122°34'0 0.0
2017-Nov-11 19:00N 48°30' W 122°34'0 0.0
2017-Nov-11 18:31N 48°30' W 122°34'0 0.0
2017-Nov-11 18:01N 48°30' W 122°34'0 0.0
2017-Nov-11 17:31N 48°30' W 122°34'0 0.0
2017-Nov-11 17:01N 48°30' W 122°34'0 0.0
2017-Nov-11 16:31N 48°30' W 122°34'0 0.0
2017-Nov-11 16:00N 48°30' W 122°34'0 0.0
2017-Nov-11 15:31N 48°30' W 122°34'0 0.0
2017-Nov-11 15:01N 48°30' W 122°34'0 0.0
2017-Nov-11 14:31N 48°30' W 122°34'1 1.3
2017-Nov-11 14:01N 48°31' W 122°35'1 2.4
2017-Nov-11 13:31N 48°32' W 122°36'3 5.5
2017-Nov-11 13:01N 48°31' W 122°41'3 5.3
2017-Nov-11 12:31N 48°29' W 122°43'2 4.3
2017-Nov-11 12:00N 48°27' W 122°44'3 6.5
2017-Nov-11 11:30N 48°24' W 122°44'3 6.3
2017-Nov-11 11:00N 48°21' W 122°45'8 6.9
2017-Nov-11 09:49N 48°13' W 122°48'10 8.9
2017-Nov-11 08:44N 48°06' W 122°39'2 9.9
2017-Nov-11 08:29N 48°03' W 122°38'510.1
2017-Nov-11 07:59N 47°59' W 122°35'4 9.4
2017-Nov-11 07:31N 47°56' W 122°29'5 9.2
2017-Nov-11 07:01N 47°51' W 122°27'4 8.8
2017-Nov-11 06:31N 47°47' W 122°26'4 8.4
2017-Nov-11 06:01N 47°43' W 122°26'4 7.9
2017-Nov-11 05:31N 47°39' W 122°27'4 7.0
2017-Nov-11 05:00N 47°36' W 122°23'1 1.9
2017-Nov-11 04:29N 47°35' W 122°23'0 0.1
2017-Nov-11 03:58N 47°35' W 122°22'0 0.0
2017-Nov-11 03:29N 47°35' W 122°22'0 0.0
2017-Nov-11 02:59N 47°35' W 122°22'0 0.0
2017-Nov-11 02:29N 47°35' W 122°22'0 0.0
2017-Nov-11 01:59N 47°35' W 122°22'0 0.0
2017-Nov-11 01:28N 47°35' W 122°22'0 0.1
2017-Nov-11 00:59N 47°35' W 122°23'0 0.1
2017-Nov-11 00:29N 47°35' W 122°23'0 0.1
2017-Nov-10 23:59N 47°35' W 122°23'0 0.1
2017-Nov-10 23:28N 47°35' W 122°23'0 0.0
2017-Nov-10 22:59N 47°35' W 122°23'0 0.0
2017-Nov-10 22:29N 47°35' W 122°23'0 0.0
2017-Nov-10 21:59N 47°35' W 122°23'0 0.0
2017-Nov-10 21:28N 47°35' W 122°23'1 2.3
2017-Nov-10 21:00N 47°36' W 122°21'1 2.0
2017-Nov-10 20:26N 47°34' W 122°21'1 1.9
2017-Nov-10 20:00N 47°35' W 122°21'1 2.3
2017-Nov-10 19:29N 47°35' W 122°23'0 0.1
2017-Nov-10 18:58N 47°35' W 122°23'0 0.1
2017-Nov-10 18:29N 47°35' W 122°23'0 0.1
2017-Nov-10 17:56N 47°35' W 122°23'0 0.1
2017-Nov-10 17:28N 47°35' W 122°23'0 0.1
2017-Nov-10 16:59N 47°35' W 122°23'0 0.0
2017-Nov-10 16:29N 47°35' W 122°23'0 0.0
2017-Nov-10 15:59N 47°35' W 122°23'0 0.0
2017-Nov-10 15:29N 47°35' W 122°23'0 0.1
2017-Nov-10 14:58N 47°35' W 122°22'0 0.0
2017-Nov-10 14:29N 47°35' W 122°22'0 0.0
2017-Nov-10 13:59N 47°35' W 122°22'0 0.0
2017-Nov-10 13:29N 47°35' W 122°22'0 0.0
2017-Nov-10 12:59N 47°35' W 122°22'0 0.0
2017-Nov-10 12:25N 47°35' W 122°22'0 0.1
2017-Nov-10 11:59N 47°35' W 122°23'0 0.0
2017-Nov-10 11:29N 47°35' W 122°23'0 0.1
2017-Nov-10 10:58N 47°35' W 122°22'0 0.1
2017-Nov-10 10:29N 47°35' W 122°23'0 0.1
2017-Nov-10 09:58N 47°35' W 122°23'0 0.0
2017-Nov-10 09:29N 47°35' W 122°23'0 0.0
2017-Nov-10 08:59N 47°35' W 122°23'0 0.0
2017-Nov-10 08:29N 47°35' W 122°23'0 0.0
2017-Nov-10 07:59N 47°35' W 122°23'0 0.0
2017-Nov-10 07:29N 47°35' W 122°23'0 0.0
2017-Nov-10 06:59N 47°35' W 122°23'0 0.0
2017-Nov-10 06:29N 47°35' W 122°23'0 0.0
2017-Nov-10 05:59N 47°35' W 122°23'0 0.0
2017-Nov-10 05:29N 47°35' W 122°23'0 0.0
2017-Nov-10 04:58N 47°35' W 122°23'0 0.0
2017-Nov-10 04:28N 47°35' W 122°23'0 0.0
2017-Nov-10 03:58N 47°35' W 122°23'0 0.0
2017-Nov-10 03:28N 47°35' W 122°23'0 0.0
2017-Nov-10 02:52N 47°35' W 122°23'0 0.1
2017-Nov-10 02:28N 47°35' W 122°23'0 0.1
2017-Nov-10 01:58N 47°35' W 122°22'0 0.1
2017-Nov-10 01:28N 47°35' W 122°23'0 0.1
2017-Nov-10 00:58N 47°35' W 122°23'  

Dump ship's entire track history